sensor_id;sensor_type;location;lat;lon;timestamp;P1;durP1;ratioP1;P2;durP2;ratioP2
65174;SDS011;51761;42.126;24.752;2023-03-01T00:01:07;6.25;;;3.92;;
65174;SDS011;51761;42.126;24.752;2023-03-01T00:03:38;8.50;;;4.13;;
65174;SDS011;51761;42.126;24.752;2023-03-01T00:06:04;6.95;;;4.18;;
65174;SDS011;51761;42.126;24.752;2023-03-01T00:08:31;7.72;;;4.07;;
65174;SDS011;51761;42.126;24.752;2023-03-01T00:11:08;6.72;;;4.30;;
65174;SDS011;51761;42.126;24.752;2023-03-01T00:13:51;10.27;;;4.85;;
65174;SDS011;51761;42.126;24.752;2023-03-01T00:16:19;7.40;;;4.43;;
65174;SDS011;51761;42.126;24.752;2023-03-01T00:18:49;7.43;;;5.03;;
65174;SDS011;51761;42.126;24.752;2023-03-01T00:21:15;8.27;;;4.75;;
65174;SDS011;51761;42.126;24.752;2023-03-01T00:23:41;10.50;;;6.15;;
65174;SDS011;51761;42.126;24.752;2023-03-01T00:26:08;16.25;;;10.25;;
65174;SDS011;51761;42.126;24.752;2023-03-01T00:28:35;18.27;;;10.77;;
65174;SDS011;51761;42.126;24.752;2023-03-01T00:31:04;18.10;;;10.30;;
65174;SDS011;51761;42.126;24.752;2023-03-01T00:33:33;14.10;;;8.15;;
65174;SDS011;51761;42.126;24.752;2023-03-01T00:35:59;11.90;;;6.68;;
65174;SDS011;51761;42.126;24.752;2023-03-01T00:38:25;10.93;;;5.82;;
65174;SDS011;51761;42.126;24.752;2023-03-01T00:40:51;10.23;;;5.68;;
65174;SDS011;51761;42.126;24.752;2023-03-01T00:43:16;12.15;;;5.38;;
65174;SDS011;51761;42.126;24.752;2023-03-01T00:45:42;7.18;;;5.10;;
65174;SDS011;51761;42.126;24.752;2023-03-01T00:48:07;8.88;;;5.07;;
65174;SDS011;51761;42.126;24.752;2023-03-01T00:50:33;7.93;;;4.50;;
65174;SDS011;51761;42.126;24.752;2023-03-01T00:52:59;6.63;;;4.57;;
65174;SDS011;51761;42.126;24.752;2023-03-01T00:55:24;9.25;;;4.72;;
65174;SDS011;51761;42.126;24.752;2023-03-01T00:57:51;7.68;;;4.78;;
65174;SDS011;51761;42.126;24.752;2023-03-01T01:00:17;7.53;;;4.95;;
65174;SDS011;51761;42.126;24.752;2023-03-01T01:02:44;6.60;;;4.45;;
65174;SDS011;51761;42.126;24.752;2023-03-01T01:05:10;8.10;;;4.65;;
65174;SDS011;51761;42.126;24.752;2023-03-01T01:07:36;7.07;;;5.00;;
65174;SDS011;51761;42.126;24.752;2023-03-01T01:10:02;8.30;;;4.72;;
65174;SDS011;51761;42.126;24.752;2023-03-01T01:12:28;8.13;;;4.07;;
65174;SDS011;51761;42.126;24.752;2023-03-01T01:14:54;7.38;;;4.25;;
65174;SDS011;51761;42.126;24.752;2023-03-01T01:17:19;7.32;;;4.72;;
65174;SDS011;51761;42.126;24.752;2023-03-01T01:19:45;6.07;;;3.90;;
65174;SDS011;51761;42.126;24.752;2023-03-01T01:22:10;7.57;;;4.43;;
65174;SDS011;51761;42.126;24.752;2023-03-01T01:24:36;6.47;;;4.18;;
65174;SDS011;51761;42.126;24.752;2023-03-01T01:27:01;7.53;;;4.72;;
65174;SDS011;51761;42.126;24.752;2023-03-01T01:29:27;7.47;;;3.85;;
65174;SDS011;51761;42.126;24.752;2023-03-01T01:31:52;6.05;;;4.47;;
65174;SDS011;51761;42.126;24.752;2023-03-01T01:34:19;5.10;;;3.72;;
65174;SDS011;51761;42.126;24.752;2023-03-01T01:36:52;5.60;;;3.75;;
65174;SDS011;51761;42.126;24.752;2023-03-01T01:39:19;6.50;;;3.85;;
65174;SDS011;51761;42.126;24.752;2023-03-01T01:41:48;6.88;;;4.32;;
65174;SDS011;51761;42.126;24.752;2023-03-01T01:44:26;6.68;;;4.38;;
65174;SDS011;51761;42.126;24.752;2023-03-01T01:46:55;7.05;;;4.05;;
65174;SDS011;51761;42.126;24.752;2023-03-01T01:49:38;5.10;;;3.70;;
65174;SDS011;51761;42.126;24.752;2023-03-01T01:52:16;6.90;;;3.90;;
65174;SDS011;51761;42.126;24.752;2023-03-01T01:54:50;6.25;;;4.22;;
65174;SDS011;51761;42.126;24.752;2023-03-01T01:57:29;6.10;;;4.70;;
65174;SDS011;51761;42.126;24.752;2023-03-01T02:00:07;8.48;;;4.85;;
65174;SDS011;51761;42.126;24.752;2023-03-01T02:02:35;7.70;;;4.45;;
65174;SDS011;51761;42.126;24.752;2023-03-01T02:05:06;9.20;;;5.47;;
65174;SDS011;51761;42.126;24.752;2023-03-01T02:07:38;7.97;;;4.55;;
65174;SDS011;51761;42.126;24.752;2023-03-01T02:10:05;7.00;;;4.97;;
65174;SDS011;51761;42.126;24.752;2023-03-01T02:12:31;7.97;;;4.97;;
65174;SDS011;51761;42.126;24.752;2023-03-01T02:14:57;6.93;;;4.65;;
65174;SDS011;51761;42.126;24.752;2023-03-01T02:17:22;9.35;;;5.35;;
65174;SDS011;51761;42.126;24.752;2023-03-01T02:22:30;9.88;;;6.05;;
65174;SDS011;51761;42.126;24.752;2023-03-01T02:30:34;11.63;;;5.95;;
65174;SDS011;51761;42.126;24.752;2023-03-01T02:33:00;13.65;;;6.60;;
65174;SDS011;51761;42.126;24.752;2023-03-01T02:35:32;11.57;;;7.72;;
65174;SDS011;51761;42.126;24.752;2023-03-01T02:38:00;12.23;;;7.07;;
65174;SDS011;51761;42.126;24.752;2023-03-01T02:40:28;14.63;;;7.72;;
65174;SDS011;51761;42.126;24.752;2023-03-01T02:42:56;11.77;;;8.38;;
65174;SDS011;51761;42.126;24.752;2023-03-01T02:45:24;14.60;;;9.23;;
65174;SDS011;51761;42.126;24.752;2023-03-01T02:47:53;14.32;;;8.40;;
65174;SDS011;51761;42.126;24.752;2023-03-01T02:50:26;14.05;;;8.13;;
65174;SDS011;51761;42.126;24.752;2023-03-01T02:53:16;13.93;;;9.40;;
65174;SDS011;51761;42.126;24.752;2023-03-01T02:55:46;12.00;;;8.25;;
65174;SDS011;51761;42.126;24.752;2023-03-01T02:58:12;11.35;;;7.25;;
65174;SDS011;51761;42.126;24.752;2023-03-01T03:00:39;12.23;;;7.70;;
65174;SDS011;51761;42.126;24.752;2023-03-01T03:03:10;12.48;;;7.55;;
65174;SDS011;51761;42.126;24.752;2023-03-01T03:05:41;13.70;;;7.70;;
65174;SDS011;51761;42.126;24.752;2023-03-01T03:08:07;14.35;;;7.75;;
65174;SDS011;51761;42.126;24.752;2023-03-01T03:10:34;13.57;;;7.18;;
65174;SDS011;51761;42.126;24.752;2023-03-01T03:13:04;13.35;;;6.63;;
65174;SDS011;51761;42.126;24.752;2023-03-01T03:15:34;8.82;;;5.63;;
65174;SDS011;51761;42.126;24.752;2023-03-01T03:18:05;10.80;;;6.13;;
65174;SDS011;51761;42.126;24.752;2023-03-01T03:20:33;11.68;;;6.25;;
65174;SDS011;51761;42.126;24.752;2023-03-01T03:22:59;10.38;;;6.15;;
65174;SDS011;51761;42.126;24.752;2023-03-01T03:25:26;9.77;;;5.95;;
65174;SDS011;51761;42.126;24.752;2023-03-01T03:27:53;8.73;;;5.82;;
65174;SDS011;51761;42.126;24.752;2023-03-01T03:30:21;8.13;;;5.55;;
65174;SDS011;51761;42.126;24.752;2023-03-01T03:32:49;24.98;;;9.52;;
65174;SDS011;51761;42.126;24.752;2023-03-01T03:35:28;9.45;;;6.05;;
65174;SDS011;51761;42.126;24.752;2023-03-01T03:37:56;9.88;;;5.97;;
65174;SDS011;51761;42.126;24.752;2023-03-01T03:40:40;8.73;;;5.85;;
65174;SDS011;51761;42.126;24.752;2023-03-01T03:43:08;10.90;;;6.57;;
65174;SDS011;51761;42.126;24.752;2023-03-01T03:45:37;9.80;;;6.00;;
65174;SDS011;51761;42.126;24.752;2023-03-01T03:48:03;8.88;;;5.80;;
65174;SDS011;51761;42.126;24.752;2023-03-01T03:50:31;11.95;;;6.03;;
65174;SDS011;51761;42.126;24.752;2023-03-01T03:52:57;11.02;;;6.63;;
65174;SDS011;51761;42.126;24.752;2023-03-01T03:55:24;11.23;;;6.82;;
65174;SDS011;51761;42.126;24.752;2023-03-01T04:00:42;10.65;;;6.28;;
65174;SDS011;51761;42.126;24.752;2023-03-01T04:03:09;10.70;;;6.60;;
65174;SDS011;51761;42.126;24.752;2023-03-01T04:05:37;10.60;;;6.32;;
65174;SDS011;51761;42.126;24.752;2023-03-01T04:08:03;10.50;;;6.53;;
65174;SDS011;51761;42.126;24.752;2023-03-01T04:10:39;10.57;;;6.15;;
65174;SDS011;51761;42.126;24.752;2023-03-01T04:13:11;10.60;;;6.47;;
65174;SDS011;51761;42.126;24.752;2023-03-01T04:15:38;12.95;;;7.28;;
65174;SDS011;51761;42.126;24.752;2023-03-01T04:18:05;11.60;;;6.93;;
65174;SDS011;51761;42.126;24.752;2023-03-01T04:20:32;20.60;;;9.30;;
65174;SDS011;51761;42.126;24.752;2023-03-01T04:23:07;15.52;;;8.70;;
65174;SDS011;51761;42.126;24.752;2023-03-01T04:25:51;13.70;;;7.22;;
65174;SDS011;51761;42.126;24.752;2023-03-01T04:28:23;13.05;;;7.03;;
65174;SDS011;51761;42.126;24.752;2023-03-01T04:30:55;18.13;;;8.65;;
65174;SDS011;51761;42.126;24.752;2023-03-01T04:33:22;15.05;;;8.43;;
65174;SDS011;51761;42.126;24.752;2023-03-01T04:35:48;15.85;;;8.32;;
65174;SDS011;51761;42.126;24.752;2023-03-01T04:38:14;14.65;;;7.72;;
65174;SDS011;51761;42.126;24.752;2023-03-01T04:40:41;18.80;;;8.00;;
65174;SDS011;51761;42.126;24.752;2023-03-01T04:43:08;16.50;;;8.60;;
65174;SDS011;51761;42.126;24.752;2023-03-01T04:45:34;17.90;;;8.73;;
65174;SDS011;51761;42.126;24.752;2023-03-01T04:48:01;12.90;;;6.97;;
65174;SDS011;51761;42.126;24.752;2023-03-01T04:50:27;12.90;;;7.22;;
65174;SDS011;51761;42.126;24.752;2023-03-01T04:52:52;12.10;;;7.13;;
65174;SDS011;51761;42.126;24.752;2023-03-01T04:55:18;16.98;;;8.30;;
65174;SDS011;51761;42.126;24.752;2023-03-01T04:57:45;16.60;;;8.35;;
65174;SDS011;51761;42.126;24.752;2023-03-01T05:00:11;16.33;;;8.90;;
65174;SDS011;51761;42.126;24.752;2023-03-01T05:02:47;15.32;;;8.35;;
65174;SDS011;51761;42.126;24.752;2023-03-01T05:05:14;15.30;;;7.97;;
65174;SDS011;51761;42.126;24.752;2023-03-01T05:07:40;13.45;;;8.10;;
65174;SDS011;51761;42.126;24.752;2023-03-01T05:10:05;14.90;;;8.07;;
65174;SDS011;51761;42.126;24.752;2023-03-01T05:12:31;15.27;;;8.35;;
65174;SDS011;51761;42.126;24.752;2023-03-01T05:14:57;15.05;;;8.40;;
65174;SDS011;51761;42.126;24.752;2023-03-01T05:17:23;13.60;;;7.70;;
65174;SDS011;51761;42.126;24.752;2023-03-01T05:19:49;16.95;;;9.45;;
65174;SDS011;51761;42.126;24.752;2023-03-01T05:22:15;22.77;;;11.88;;
65174;SDS011;51761;42.126;24.752;2023-03-01T05:24:40;24.55;;;11.85;;
65174;SDS011;51761;42.126;24.752;2023-03-01T05:27:06;23.92;;;13.20;;
65174;SDS011;51761;42.126;24.752;2023-03-01T05:29:31;19.73;;;11.32;;
65174;SDS011;51761;42.126;24.752;2023-03-01T05:32:00;18.50;;;11.13;;
65174;SDS011;51761;42.126;24.752;2023-03-01T05:36:53;20.42;;;9.95;;
65174;SDS011;51761;42.126;24.752;2023-03-01T05:39:20;18.45;;;11.40;;
65174;SDS011;51761;42.126;24.752;2023-03-01T05:41:47;28.00;;;10.73;;
65174;SDS011;51761;42.126;24.752;2023-03-01T05:44:17;20.80;;;10.18;;
65174;SDS011;51761;42.126;24.752;2023-03-01T05:46:42;22.60;;;10.75;;
65174;SDS011;51761;42.126;24.752;2023-03-01T05:49:08;20.60;;;11.68;;
65174;SDS011;51761;42.126;24.752;2023-03-01T05:51:33;18.17;;;11.02;;
65174;SDS011;51761;42.126;24.752;2023-03-01T05:53:59;18.77;;;9.68;;
65174;SDS011;51761;42.126;24.752;2023-03-01T05:56:25;18.17;;;10.73;;
65174;SDS011;51761;42.126;24.752;2023-03-01T05:58:50;18.40;;;10.20;;
65174;SDS011;51761;42.126;24.752;2023-03-01T06:01:16;19.33;;;10.55;;
65174;SDS011;51761;42.126;24.752;2023-03-01T06:03:41;19.98;;;9.30;;
65174;SDS011;51761;42.126;24.752;2023-03-01T06:06:07;12.77;;;8.98;;
65174;SDS011;51761;42.126;24.752;2023-03-01T06:08:33;15.57;;;9.27;;
65174;SDS011;51761;42.126;24.752;2023-03-01T06:10:58;17.55;;;10.30;;
65174;SDS011;51761;42.126;24.752;2023-03-01T06:13:24;16.98;;;10.43;;
65174;SDS011;51761;42.126;24.752;2023-03-01T06:15:50;18.05;;;10.45;;
65174;SDS011;51761;42.126;24.752;2023-03-01T06:18:15;20.75;;;10.65;;
65174;SDS011;51761;42.126;24.752;2023-03-01T06:20:41;16.90;;;9.75;;
65174;SDS011;51761;42.126;24.752;2023-03-01T06:23:06;17.92;;;9.45;;
65174;SDS011;51761;42.126;24.752;2023-03-01T06:25:32;20.27;;;10.55;;
65174;SDS011;51761;42.126;24.752;2023-03-01T06:27:57;19.33;;;10.45;;
65174;SDS011;51761;42.126;24.752;2023-03-01T06:30:23;27.05;;;14.50;;
65174;SDS011;51761;42.126;24.752;2023-03-01T06:32:50;21.35;;;10.90;;
65174;SDS011;51761;42.126;24.752;2023-03-01T06:35:16;20.73;;;11.38;;
65174;SDS011;51761;42.126;24.752;2023-03-01T06:37:43;17.90;;;11.68;;
65174;SDS011;51761;42.126;24.752;2023-03-01T06:40:10;13.85;;;8.48;;
65174;SDS011;51761;42.126;24.752;2023-03-01T06:42:36;11.93;;;7.57;;
65174;SDS011;51761;42.126;24.752;2023-03-01T06:45:04;14.07;;;8.07;;
65174;SDS011;51761;42.126;24.752;2023-03-01T06:47:31;13.98;;;8.32;;
65174;SDS011;51761;42.126;24.752;2023-03-01T06:49:58;17.50;;;10.02;;
65174;SDS011;51761;42.126;24.752;2023-03-01T06:52:24;15.18;;;8.88;;
65174;SDS011;51761;42.126;24.752;2023-03-01T06:54:50;14.25;;;6.88;;
65174;SDS011;51761;42.126;24.752;2023-03-01T06:57:15;11.70;;;7.60;;
65174;SDS011;51761;42.126;24.752;2023-03-01T06:59:41;12.60;;;6.78;;
65174;SDS011;51761;42.126;24.752;2023-03-01T07:02:09;10.73;;;5.55;;
65174;SDS011;51761;42.126;24.752;2023-03-01T07:04:38;10.75;;;5.53;;
65174;SDS011;51761;42.126;24.752;2023-03-01T07:07:04;6.38;;;4.47;;
65174;SDS011;51761;42.126;24.752;2023-03-01T07:09:29;7.43;;;5.20;;
65174;SDS011;51761;42.126;24.752;2023-03-01T07:11:56;7.30;;;4.90;;
65174;SDS011;51761;42.126;24.752;2023-03-01T07:14:21;9.63;;;5.93;;
65174;SDS011;51761;42.126;24.752;2023-03-01T07:16:49;9.07;;;5.22;;
65174;SDS011;51761;42.126;24.752;2023-03-01T07:19:15;9.23;;;5.55;;
65174;SDS011;51761;42.126;24.752;2023-03-01T07:21:41;8.23;;;5.13;;
65174;SDS011;51761;42.126;24.752;2023-03-01T07:24:07;7.72;;;5.00;;
65174;SDS011;51761;42.126;24.752;2023-03-01T07:26:33;8.20;;;4.85;;
65174;SDS011;51761;42.126;24.752;2023-03-01T07:28:58;7.70;;;5.13;;
65174;SDS011;51761;42.126;24.752;2023-03-01T07:31:25;8.77;;;5.60;;
65174;SDS011;51761;42.126;24.752;2023-03-01T07:33:52;10.88;;;6.75;;
65174;SDS011;51761;42.126;24.752;2023-03-01T07:36:18;9.57;;;6.07;;
65174;SDS011;51761;42.126;24.752;2023-03-01T07:38:44;10.98;;;6.35;;
65174;SDS011;51761;42.126;24.752;2023-03-01T07:41:09;9.45;;;5.38;;
65174;SDS011;51761;42.126;24.752;2023-03-01T07:43:35;7.18;;;4.90;;
65174;SDS011;51761;42.126;24.752;2023-03-01T07:46:01;6.50;;;4.25;;
65174;SDS011;51761;42.126;24.752;2023-03-01T07:48:27;7.45;;;4.53;;
65174;SDS011;51761;42.126;24.752;2023-03-01T07:50:53;6.35;;;4.22;;
65174;SDS011;51761;42.126;24.752;2023-03-01T07:53:18;5.43;;;3.17;;
65174;SDS011;51761;42.126;24.752;2023-03-01T07:55:44;8.23;;;4.53;;
65174;SDS011;51761;42.126;24.752;2023-03-01T07:58:09;6.15;;;3.65;;
65174;SDS011;51761;42.126;24.752;2023-03-01T08:00:35;6.50;;;4.15;;
65174;SDS011;51761;42.126;24.752;2023-03-01T08:03:00;7.45;;;3.92;;
65174;SDS011;51761;42.126;24.752;2023-03-01T08:05:27;5.65;;;3.17;;
65174;SDS011;51761;42.126;24.752;2023-03-01T08:07:53;4.93;;;3.10;;
65174;SDS011;51761;42.126;24.752;2023-03-01T08:10:19;8.57;;;2.53;;
65174;SDS011;51761;42.126;24.752;2023-03-01T08:12:45;6.63;;;2.95;;
65174;SDS011;51761;42.126;24.752;2023-03-01T08:15:11;6.63;;;3.03;;
65174;SDS011;51761;42.126;24.752;2023-03-01T08:17:36;6.25;;;3.10;;
65174;SDS011;51761;42.126;24.752;2023-03-01T08:20:02;6.35;;;3.05;;
65174;SDS011;51761;42.126;24.752;2023-03-01T08:22:31;5.05;;;3.60;;
65174;SDS011;51761;42.126;24.752;2023-03-01T08:24:56;7.40;;;3.88;;
65174;SDS011;51761;42.126;24.752;2023-03-01T08:27:22;8.63;;;4.05;;
65174;SDS011;51761;42.126;24.752;2023-03-01T08:29:47;5.75;;;3.35;;
65174;SDS011;51761;42.126;24.752;2023-03-01T08:32:13;6.60;;;3.70;;
65174;SDS011;51761;42.126;24.752;2023-03-01T08:34:38;5.65;;;3.55;;
65174;SDS011;51761;42.126;24.752;2023-03-01T08:37:04;6.25;;;3.58;;
65174;SDS011;51761;42.126;24.752;2023-03-01T08:39:29;10.65;;;4.30;;
65174;SDS011;51761;42.126;24.752;2023-03-01T08:41:55;10.90;;;5.50;;
65174;SDS011;51761;42.126;24.752;2023-03-01T08:44:20;14.00;;;5.60;;
65174;SDS011;51761;42.126;24.752;2023-03-01T08:46:46;10.77;;;5.93;;
65174;SDS011;51761;42.126;24.752;2023-03-01T08:49:16;11.85;;;7.88;;
65174;SDS011;51761;42.126;24.752;2023-03-01T08:51:44;14.55;;;8.10;;
65174;SDS011;51761;42.126;24.752;2023-03-01T08:54:11;14.00;;;7.60;;
65174;SDS011;51761;42.126;24.752;2023-03-01T08:56:39;10.68;;;6.57;;
65174;SDS011;51761;42.126;24.752;2023-03-01T08:59:05;9.80;;;5.25;;
65174;SDS011;51761;42.126;24.752;2023-03-01T09:01:31;3.80;;;2.35;;
65174;SDS011;51761;42.126;24.752;2023-03-01T09:03:56;4.85;;;2.92;;
65174;SDS011;51761;42.126;24.752;2023-03-01T09:06:22;4.68;;;2.60;;
65174;SDS011;51761;42.126;24.752;2023-03-01T09:08:48;4.75;;;3.15;;
65174;SDS011;51761;42.126;24.752;2023-03-01T09:11:16;9.48;;;4.68;;
65174;SDS011;51761;42.126;24.752;2023-03-01T09:13:45;7.80;;;4.40;;
65174;SDS011;51761;42.126;24.752;2023-03-01T09:16:13;8.02;;;4.25;;
65174;SDS011;51761;42.126;24.752;2023-03-01T09:18:40;10.70;;;3.67;;
65174;SDS011;51761;42.126;24.752;2023-03-01T09:21:10;5.63;;;4.05;;
65174;SDS011;51761;42.126;24.752;2023-03-01T09:23:38;7.15;;;4.28;;
65174;SDS011;51761;42.126;24.752;2023-03-01T09:26:06;9.32;;;4.18;;
65174;SDS011;51761;42.126;24.752;2023-03-01T09:28:34;4.93;;;3.50;;
65174;SDS011;51761;42.126;24.752;2023-03-01T09:31:00;8.30;;;3.72;;
65174;SDS011;51761;42.126;24.752;2023-03-01T09:33:30;9.25;;;3.65;;
65174;SDS011;51761;42.126;24.752;2023-03-01T09:36:01;8.93;;;4.70;;
65174;SDS011;51761;42.126;24.752;2023-03-01T09:38:28;7.93;;;5.05;;
65174;SDS011;51761;42.126;24.752;2023-03-01T09:40:54;9.43;;;5.57;;
65174;SDS011;51761;42.126;24.752;2023-03-01T09:43:32;17.35;;;7.35;;
65174;SDS011;51761;42.126;24.752;2023-03-01T09:46:00;13.02;;;7.15;;
65174;SDS011;51761;42.126;24.752;2023-03-01T09:48:33;13.93;;;6.03;;
65174;SDS011;51761;42.126;24.752;2023-03-01T09:51:07;13.32;;;6.25;;
65174;SDS011;51761;42.126;24.752;2023-03-01T09:53:37;10.88;;;5.03;;
65174;SDS011;51761;42.126;24.752;2023-03-01T09:56:05;7.18;;;4.43;;
65174;SDS011;51761;42.126;24.752;2023-03-01T10:04:26;12.00;;;5.68;;
65174;SDS011;51761;42.126;24.752;2023-03-01T10:09:58;9.65;;;4.85;;
65174;SDS011;51761;42.126;24.752;2023-03-01T10:12:26;8.27;;;4.50;;
65174;SDS011;51761;42.126;24.752;2023-03-01T10:22:41;6.93;;;4.53;;
65174;SDS011;51761;42.126;24.752;2023-03-01T10:25:08;6.07;;;3.78;;
65174;SDS011;51761;42.126;24.752;2023-03-01T10:32:45;9.70;;;7.07;;
65174;SDS011;51761;42.126;24.752;2023-03-01T10:35:24;8.93;;;4.95;;
65174;SDS011;51761;42.126;24.752;2023-03-01T10:38:12;11.60;;;4.30;;
65174;SDS011;51761;42.126;24.752;2023-03-01T10:43:20;9.50;;;4.18;;
65174;SDS011;51761;42.126;24.752;2023-03-01T10:45:46;11.77;;;5.90;;
65174;SDS011;51761;42.126;24.752;2023-03-01T10:48:17;12.50;;;6.03;;
65174;SDS011;51761;42.126;24.752;2023-03-01T10:50:50;13.10;;;5.73;;
65174;SDS011;51761;42.126;24.752;2023-03-01T10:55:59;7.70;;;5.13;;
65174;SDS011;51761;42.126;24.752;2023-03-01T10:58:26;12.70;;;5.75;;
65174;SDS011;51761;42.126;24.752;2023-03-01T11:01:00;7.50;;;4.40;;
65174;SDS011;51761;42.126;24.752;2023-03-01T11:03:33;10.90;;;6.65;;
65174;SDS011;51761;42.126;24.752;2023-03-01T11:11:41;20.23;;;13.20;;
65174;SDS011;51761;42.126;24.752;2023-03-01T11:13:49;20.40;;;11.60;;
65174;SDS011;51761;42.126;24.752;2023-03-01T11:16:38;19.05;;;10.68;;
65174;SDS011;51761;42.126;24.752;2023-03-01T11:21:36;9.25;;;6.07;;
65174;SDS011;51761;42.126;24.752;2023-03-01T11:24:05;13.50;;;7.15;;
65174;SDS011;51761;42.126;24.752;2023-03-01T11:26:36;12.02;;;8.07;;
65174;SDS011;51761;42.126;24.752;2023-03-01T11:29:10;10.75;;;6.30;;
65174;SDS011;51761;42.126;24.752;2023-03-01T11:31:50;16.15;;;6.82;;
65174;SDS011;51761;42.126;24.752;2023-03-01T11:34:19;19.55;;;7.75;;
65174;SDS011;51761;42.126;24.752;2023-03-01T11:36:59;21.42;;;10.93;;
65174;SDS011;51761;42.126;24.752;2023-03-01T11:39:38;18.50;;;10.80;;
65174;SDS011;51761;42.126;24.752;2023-03-01T11:42:11;18.67;;;10.05;;
65174;SDS011;51761;42.126;24.752;2023-03-01T11:44:45;22.30;;;10.75;;
65174;SDS011;51761;42.126;24.752;2023-03-01T11:58:16;19.13;;;11.85;;
65174;SDS011;51761;42.126;24.752;2023-03-01T12:00:55;18.77;;;8.55;;
65174;SDS011;51761;42.126;24.752;2023-03-01T12:11:16;6.35;;;3.50;;
65174;SDS011;51761;42.126;24.752;2023-03-01T12:23:28;6.30;;;3.00;;
65174;SDS011;51761;42.126;24.752;2023-03-01T12:28:23;11.73;;;4.57;;
65174;SDS011;51761;42.126;24.752;2023-03-01T12:36:57;9.73;;;4.88;;
65174;SDS011;51761;42.126;24.752;2023-03-01T12:50:52;6.47;;;3.05;;
65174;SDS011;51761;42.126;24.752;2023-03-01T12:53:24;3.90;;;2.80;;
65174;SDS011;51761;42.126;24.752;2023-03-01T12:55:53;4.10;;;2.90;;
65174;SDS011;51761;42.126;24.752;2023-03-01T13:20:21;16.30;;;6.18;;
65174;SDS011;51761;42.126;24.752;2023-03-01T13:23:05;13.77;;;5.13;;
65174;SDS011;51761;42.126;24.752;2023-03-01T13:25:34;5.97;;;3.78;;
65174;SDS011;51761;42.126;24.752;2023-03-01T13:49:31;9.27;;;3.95;;
65174;SDS011;51761;42.126;24.752;2023-03-01T13:52:06;6.90;;;3.30;;
65174;SDS011;51761;42.126;24.752;2023-03-01T13:54:46;6.55;;;4.18;;
65174;SDS011;51761;42.126;24.752;2023-03-01T13:57:12;7.43;;;4.93;;
65174;SDS011;51761;42.126;24.752;2023-03-01T13:59:47;7.22;;;5.22;;
65174;SDS011;51761;42.126;24.752;2023-03-01T14:02:13;8.18;;;5.57;;
65174;SDS011;51761;42.126;24.752;2023-03-01T14:04:38;13.88;;;6.38;;
65174;SDS011;51761;42.126;24.752;2023-03-01T14:07:12;11.98;;;7.35;;
65174;SDS011;51761;42.126;24.752;2023-03-01T14:09:43;12.73;;;7.40;;
65174;SDS011;51761;42.126;24.752;2023-03-01T14:18:23;19.35;;;11.70;;
65174;SDS011;51761;42.126;24.752;2023-03-01T14:20:55;23.70;;;13.07;;
65174;SDS011;51761;42.126;24.752;2023-03-01T14:23:21;27.63;;;14.35;;
65174;SDS011;51761;42.126;24.752;2023-03-01T14:30:47;34.10;;;9.60;;
65174;SDS011;51761;42.126;24.752;2023-03-01T14:38:22;18.95;;;8.90;;
65174;SDS011;51761;42.126;24.752;2023-03-01T14:40:55;14.88;;;9.90;;
65174;SDS011;51761;42.126;24.752;2023-03-01T14:43:24;14.55;;;8.63;;
65174;SDS011;51761;42.126;24.752;2023-03-01T14:45:51;14.25;;;8.45;;
65174;SDS011;51761;42.126;24.752;2023-03-01T14:48:16;17.55;;;8.18;;
65174;SDS011;51761;42.126;24.752;2023-03-01T14:50:43;16.35;;;8.18;;
65174;SDS011;51761;42.126;24.752;2023-03-01T14:53:27;16.25;;;8.85;;
65174;SDS011;51761;42.126;24.752;2023-03-01T14:55:56;16.92;;;8.52;;
65174;SDS011;51761;42.126;24.752;2023-03-01T15:00:57;17.27;;;10.75;;
65174;SDS011;51761;42.126;24.752;2023-03-01T15:03:45;21.80;;;12.25;;
65174;SDS011;51761;42.126;24.752;2023-03-01T15:06:15;19.30;;;11.57;;
65174;SDS011;51761;42.126;24.752;2023-03-01T15:08:46;20.80;;;12.02;;
65174;SDS011;51761;42.126;24.752;2023-03-01T15:17:54;28.48;;;11.23;;
65174;SDS011;51761;42.126;24.752;2023-03-01T15:20:02;12.48;;;8.52;;
65174;SDS011;51761;42.126;24.752;2023-03-01T15:22:30;14.40;;;8.32;;
65174;SDS011;51761;42.126;24.752;2023-03-01T15:24:58;16.00;;;7.82;;
65174;SDS011;51761;42.126;24.752;2023-03-01T15:27:24;14.77;;;8.07;;
65174;SDS011;51761;42.126;24.752;2023-03-01T15:40:54;14.02;;;6.50;;
65174;SDS011;51761;42.126;24.752;2023-03-01T15:43:37;11.98;;;5.53;;
65174;SDS011;51761;42.126;24.752;2023-03-01T15:46:03;8.77;;;5.47;;
65174;SDS011;51761;42.126;24.752;2023-03-01T15:48:29;9.55;;;5.82;;
65174;SDS011;51761;42.126;24.752;2023-03-01T15:50:56;17.05;;;10.70;;
65174;SDS011;51761;42.126;24.752;2023-03-01T15:53:23;13.23;;;8.77;;
65174;SDS011;51761;42.126;24.752;2023-03-01T15:55:49;11.93;;;7.00;;
65174;SDS011;51761;42.126;24.752;2023-03-01T16:00:45;15.30;;;6.10;;
65174;SDS011;51761;42.126;24.752;2023-03-01T16:03:13;12.98;;;7.50;;
65174;SDS011;51761;42.126;24.752;2023-03-01T16:05:46;17.77;;;11.05;;
65174;SDS011;51761;42.126;24.752;2023-03-01T16:08:12;17.88;;;11.43;;
65174;SDS011;51761;42.126;24.752;2023-03-01T16:10:39;16.80;;;10.57;;
65174;SDS011;51761;42.126;24.752;2023-03-01T16:13:05;15.48;;;9.13;;
65174;SDS011;51761;42.126;24.752;2023-03-01T16:15:32;12.45;;;6.60;;
65174;SDS011;51761;42.126;24.752;2023-03-01T16:18:01;10.05;;;5.20;;
65174;SDS011;51761;42.126;24.752;2023-03-01T16:20:28;9.43;;;5.50;;
65174;SDS011;51761;42.126;24.752;2023-03-01T16:22:54;10.00;;;4.55;;
65174;SDS011;51761;42.126;24.752;2023-03-01T16:25:23;9.00;;;5.70;;
65174;SDS011;51761;42.126;24.752;2023-03-01T16:27:49;7.93;;;4.50;;
65174;SDS011;51761;42.126;24.752;2023-03-01T16:30:17;10.60;;;5.25;;
65174;SDS011;51761;42.126;24.752;2023-03-01T16:32:45;12.15;;;5.03;;
65174;SDS011;51761;42.126;24.752;2023-03-01T16:35:13;9.60;;;5.57;;
65174;SDS011;51761;42.126;24.752;2023-03-01T16:37:40;8.05;;;5.32;;
65174;SDS011;51761;42.126;24.752;2023-03-01T16:40:09;11.27;;;6.55;;
65174;SDS011;51761;42.126;24.752;2023-03-01T16:42:42;12.70;;;7.00;;
65174;SDS011;51761;42.126;24.752;2023-03-01T16:45:08;12.38;;;6.85;;
65174;SDS011;51761;42.126;24.752;2023-03-01T16:47:34;14.13;;;7.63;;
65174;SDS011;51761;42.126;24.752;2023-03-01T16:50:00;17.15;;;8.95;;
65174;SDS011;51761;42.126;24.752;2023-03-01T16:52:26;15.45;;;8.13;;
65174;SDS011;51761;42.126;24.752;2023-03-01T16:54:51;9.77;;;6.32;;
65174;SDS011;51761;42.126;24.752;2023-03-01T16:57:17;11.25;;;6.75;;
65174;SDS011;51761;42.126;24.752;2023-03-01T16:59:43;9.75;;;6.10;;
65174;SDS011;51761;42.126;24.752;2023-03-01T17:02:09;16.02;;;6.93;;
65174;SDS011;51761;42.126;24.752;2023-03-01T17:04:37;14.00;;;6.80;;
65174;SDS011;51761;42.126;24.752;2023-03-01T17:07:03;11.75;;;6.50;;
65174;SDS011;51761;42.126;24.752;2023-03-01T17:09:29;12.55;;;6.55;;
65174;SDS011;51761;42.126;24.752;2023-03-01T17:11:54;11.45;;;6.55;;
65174;SDS011;51761;42.126;24.752;2023-03-01T17:14:20;15.75;;;6.55;;
65174;SDS011;51761;42.126;24.752;2023-03-01T17:16:45;11.18;;;7.53;;
65174;SDS011;51761;42.126;24.752;2023-03-01T17:19:11;17.33;;;7.30;;
65174;SDS011;51761;42.126;24.752;2023-03-01T17:21:42;14.63;;;7.03;;
65174;SDS011;51761;42.126;24.752;2023-03-01T17:24:08;14.07;;;7.53;;
65174;SDS011;51761;42.126;24.752;2023-03-01T17:26:34;14.90;;;7.28;;
65174;SDS011;51761;42.126;24.752;2023-03-01T17:29:00;14.63;;;7.45;;
65174;SDS011;51761;42.126;24.752;2023-03-01T17:31:26;15.15;;;7.97;;